Time,TemperatureF,DewpointF,PressureIn,WindDirection,WindDirectionDegrees,WindSpeedMPH,WindSpeedGustMPH,Humidity,HourlyPrecipIn,Conditions,Clouds,dailyrainin,SoftwareType,DateUTC
2013-11-05 00:13:00,50.0,42.0,30.04,NNE,29,0.0,-999.0,75,-99.99,,,-99.99,,2013-11-05 06:13:00,
2013-11-05 00:21:00,50.0,42.0,30.03,NNE,30,0.0,-999.0,75,-99.99,,,-99.99,,2013-11-05 06:21:00,
2013-11-05 00:42:00,50.0,42.0,30.03,NE,42,0.0,-999.0,75,-99.99,,,-99.99,,2013-11-05 06:42:00,
2013-11-05 00:52:00,50.0,42.0,30.03,ENE,68,0.0,-999.0,75,-99.99,,,-99.99,,2013-11-05 06:52:00,
2013-11-05 01:22:00,50.0,43.0,30.02,ENE,72,0.0,-999.0,76,-99.99,,,-99.99,,2013-11-05 07:22:00,
2013-11-05 01:42:00,50.0,43.0,30.03,ESE,115,0.0,-999.0,76,-99.99,,,-99.99,,2013-11-05 07:42:00,
2013-11-05 01:52:00,50.0,43.0,30.02,ESE,107,0.0,-999.0,77,-99.99,,,-99.99,,2013-11-05 07:52:00,
2013-11-05 02:11:00,50.0,43.0,30.02,ESE,108,0.0,-999.0,78,-99.99,,,-99.99,,2013-11-05 08:11:00,
2013-11-05 02:22:00,49.0,43.0,30.01,ESE,108,0.0,-999.0,79,-99.99,,,-99.99,,2013-11-05 08:22:00,
2013-11-05 02:42:00,50.0,44.0,30.01,ESE,108,0.0,-999.0,79,-99.99,,,-99.99,,2013-11-05 08:42:00,
2013-11-05 02:52:00,50.0,44.0,30.01,ESE,108,0.0,-999.0,79,-99.99,,,-99.99,,2013-11-05 08:52:00,
2013-11-05 03:22:00,50.0,44.0,30.00,ESE,108,0.0,-999.0,80,-99.99,,,-99.99,,2013-11-05 09:22:00,
2013-11-05 03:43:00,50.0,44.0,29.99,ESE,108,0.0,-999.0,81,-99.99,,,-99.99,,2013-11-05 09:43:00,
2013-11-05 03:53:00,51.0,46.0,29.99,ESE,108,0.0,-999.0,82,-99.99,,,-99.99,,2013-11-05 09:53:00,
2013-11-05 04:13:00,51.0,46.0,29.98,ESE,107,0.0,-999.0,83,-99.99,,,-99.99,,2013-11-05 10:13:00,
2013-11-05 04:23:00,51.0,46.0,29.98,ESE,108,0.0,-999.0,83,-99.99,,,-99.99,,2013-11-05 10:23:00,
2013-11-05 04:42:00,52.0,47.0,29.98,SE,126,0.0,-999.0,84,-99.99,,,-99.99,,2013-11-05 10:42:00,
2013-11-05 04:53:00,53.0,49.0,29.98,ESE,123,5.0,-999.0,86,-99.99,,,-99.99,,2013-11-05 10:53:00,
2013-11-05 05:12:00,54.0,51.0,29.98,SE,132,6.0,-999.0,88,-99.99,,,-99.99,,2013-11-05 11:12:00,
2013-11-05 05:22:00,55.0,52.0,29.97,SE,134,6.0,-999.0,90,-99.99,,,-99.99,,2013-11-05 11:22:00,
2013-11-05 05:52:00,55.0,52.0,29.96,SE,142,9.0,-999.0,91,-99.99,,,-99.99,,2013-11-05 11:52:00,
2013-11-05 06:22:00,56.0,54.0,29.96,SE,146,8.0,-999.0,92,-99.99,,,-99.99,,2013-11-05 12:22:00,
2013-11-05 06:42:00,56.0,54.0,29.95,SSE,161,7.0,-999.0,92,-99.99,,,-99.99,,2013-11-05 12:42:00,
2013-11-05 06:52:00,56.0,54.0,29.94,SSE,156,8.0,-999.0,92,-99.99,,,-99.99,,2013-11-05 12:52:00,
2013-11-05 07:11:00,56.0,54.0,29.94,SSE,152,8.0,-999.0,92,-99.99,,,-99.99,,2013-11-05 13:11:00,
2013-11-05 07:21:00,56.0,54.0,29.93,SSE,156,9.0,-999.0,92,-99.99,,,-99.99,,2013-11-05 13:21:00,
2013-11-05 07:42:00,56.0,54.0,29.93,SE,144,9.0,-999.0,92,-99.99,,,-99.99,,2013-11-05 13:42:00,
2013-11-05 07:52:00,56.0,54.0,29.92,SSE,167,9.0,-999.0,92,-99.99,,,-99.99,,2013-11-05 13:52:00,
2013-11-05 08:22:00,57.0,55.0,29.92,SSE,159,9.0,-999.0,92,-99.99,,,-99.99,,2013-11-05 14:22:00,
2013-11-05 08:52:00,57.0,54.0,29.93,South,172,11.0,-999.0,91,-99.99,,,-99.99,,2013-11-05 14:52:00,
2013-11-05 09:21:00,57.0,55.0,29.91,SE,143,11.0,-999.0,92,-99.99,,,-99.99,,2013-11-05 15:21:00,
2013-11-05 09:53:00,57.0,55.0,29.91,SSE,161,11.0,-999.0,93,-99.99,,,-99.99,,2013-11-05 15:53:00,
2013-11-05 10:13:00,57.0,55.0,29.90,SSE,168,12.0,-999.0,92,-99.99,,,-99.99,,2013-11-05 16:13:00,
2013-11-05 10:23:00,57.0,55.0,29.91,South,183,12.0,-999.0,92,-99.99,,,-99.99,,2013-11-05 16:23:00,
2013-11-05 10:52:00,57.0,55.0,29.89,South,176,10.0,-999.0,92,-99.99,,,-99.99,,2013-11-05 16:52:00,
2013-11-05 11:22:00,58.0,56.0,29.88,South,182,10.0,-999.0,92,-99.99,,,-99.99,,2013-11-05 17:22:00,
2013-11-05 11:42:00,58.0,56.0,29.88,SSE,161,10.0,-999.0,92,-99.99,,,-99.99,,2013-11-05 17:42:00,
2013-11-05 11:52:00,58.0,56.0,29.86,SSE,152,11.0,-999.0,92,-99.99,,,-99.99,,2013-11-05 17:52:00,
2013-11-05 12:22:00,59.0,56.0,29.83,SSE,165,15.0,-999.0,91,-99.99,,,-99.99,,2013-11-05 18:22:00,
2013-11-05 12:52:00,59.0,56.0,29.79,South,180,15.0,-999.0,90,-99.99,,,-99.99,,2013-11-05 18:52:00,
2013-11-05 13:22:00,59.0,56.0,29.80,South,180,14.0,-999.0,90,-99.99,,,-99.99,,2013-11-05 19:22:00,
2013-11-05 13:52:00,59.0,56.0,29.81,South,177,10.0,-999.0,91,-99.99,,,-99.99,,2013-11-05 19:52:00,
2013-11-05 14:22:00,59.0,56.0,29.80,SSE,150,7.0,-999.0,90,-99.99,,,-99.99,,2013-11-05 20:22:00,
2013-11-05 14:52:00,59.0,56.0,29.79,SE,145,10.0,-999.0,91,-99.99,,,-99.99,,2013-11-05 20:52:00,
2013-11-05 15:22:00,59.0,56.0,29.78,South,180,10.0,-999.0,91,-99.99,,,-99.99,,2013-11-05 21:22:00,
2013-11-05 15:44:00,59.0,56.0,29.79,SSE,161,7.0,-999.0,90,-99.99,,,-99.99,,2013-11-05 21:44:00,
2013-11-05 15:54:00,59.0,56.0,29.79,SSE,150,5.0,-999.0,90,-99.99,,,-99.99,,2013-11-05 21:54:00,
2013-11-05 16:23:00,59.0,56.0,29.80,South,175,5.0,-999.0,91,-99.99,,,-99.99,,2013-11-05 22:23:00,
2013-11-05 16:43:00,60.0,57.0,29.80,South,176,5.0,-999.0,91,-99.99,,,-99.99,,2013-11-05 22:43:00,
2013-11-05 16:53:00,60.0,57.0,29.80,SSE,157,5.0,-999.0,91,-99.99,,,-99.99,,2013-11-05 22:53:00,
2013-11-05 17:22:00,55.0,51.0,29.84,NW,325,7.0,-999.0,85,-99.99,,,-99.99,,2013-11-05 23:22:00,
2013-11-05 17:53:00,51.0,48.0,29.86,WNW,303,5.0,-999.0,90,-99.99,,,-99.99,,2013-11-05 23:53:00,
2013-11-05 18:12:00,50.0,47.0,29.88,North,350,0.0,-999.0,90,-99.99,,,-99.99,,2013-11-06 00:12:00,
2013-11-05 18:22:00,49.0,46.0,29.90,WNW,287,6.0,-999.0,90,-99.99,,,-99.99,,2013-11-06 00:22:00,
2013-11-05 18:42:00,48.0,45.0,29.91,NW,318,6.0,-999.0,90,-99.99,,,-99.99,,2013-11-06 00:42:00,
2013-11-05 18:52:00,47.0,45.0,29.91,North,360,8.0,-999.0,91,-99.99,,,-99.99,,2013-11-06 00:52:00,
2013-11-05 19:22:00,45.0,43.0,29.93,North,350,5.0,-999.0,91,-99.99,,,-99.99,,2013-11-06 01:22:00,
2013-11-05 19:42:00,45.0,43.0,29.93,North,349,7.0,-999.0,91,-99.99,,,-99.99,,2013-11-06 01:42:00,
2013-11-05 19:52:00,44.0,42.0,29.96,NW,309,7.0,-999.0,91,-99.99,,,-99.99,,2013-11-06 01:52:00,
2013-11-05 20:23:00,42.0,40.0,29.96,NNW,334,5.0,-999.0,91,-99.99,,,-99.99,,2013-11-06 02:23:00,
2013-11-05 20:42:00,42.0,39.0,29.98,NW,314,7.0,16.0,90,-99.99,,,-99.99,,2013-11-06 02:42:00,
2013-11-05 20:52:00,41.0,38.0,29.99,NNW,336,8.0,15.0,90,-99.99,,,-99.99,,2013-11-06 02:52:00,
2013-11-05 21:22:00,40.0,37.0,30.01,NNW,327,8.0,16.0,90,-99.99,,,-99.99,,2013-11-06 03:22:00,
2013-11-05 21:44:00,40.0,37.0,30.01,North,350,8.0,17.0,90,0.00,,,-99.99,,2013-11-06 03:44:00,
2013-11-05 21:54:00,40.0,37.0,30.01,NW,306,7.0,22.0,89,0.00,,,-99.99,,2013-11-06 03:54:00,
2013-11-05 22:14:00,40.0,37.0,30.03,NW,315,9.0,16.0,89,0.00,,,-99.99,,2013-11-06 04:14:00,
2013-11-05 22:24:00,39.0,36.0,30.03,NW,319,8.0,18.0,89,0.00,,,-99.99,,2013-11-06 04:24:00,
2013-11-05 22:43:00,39.0,36.0,30.03,NW,316,10.0,16.0,89,0.00,,,-99.99,,2013-11-06 04:43:00,
2013-11-05 22:53:00,39.0,36.0,30.06,NNW,342,7.0,16.0,88,0.00,,,-99.99,,2013-11-06 04:53:00,
2013-11-05 23:13:00,39.0,36.0,30.07,North,349,7.0,17.0,88,0.00,,,-99.99,,2013-11-06 05:13:00,
2013-11-05 23:23:00,38.0,34.0,30.08,NNW,330,10.0,19.0,87,0.00,,,-99.99,,2013-11-06 05:23:00,
2013-11-05 23:44:00,38.0,34.0,30.08,NNW,345,9.0,15.0,87,0.00,,,-99.99,,2013-11-06 05:44:00,
2013-11-05 23:53:00,38.0,34.0,30.09,NW,317,6.0,16.0,87,0.00,,,-99.99,,2013-11-06 05:53:00,